Etusivu
METAR-TAF:

METAR-TAF

Lentoasemat :

Alexandroúpolin kansainvälinen lentoasema

Alexandroúpoli, Kreikka

Leveyspiiri: 40-51N, Pituuspiiri: 025-55E, korkeus merenpinnasta: 7 m

Tämänhetkinen sää

Tämä raportti tehtiin 39 minuuttia sitten, kello 14.20 UTC
Tuuli 8 kn lounaasta
Lämpötila 32°C
Kosteus 52%
Ilmanpaine 1009 hPa
Näkyvyys 10 km tai enemmän
ei pilviä alle 1500 m:ssä eikä cumulonimbus-pilviä

METAR: LGAL 121420Z 23008KT CAVOK 32/21 Q1009

Aika: 17:59 (14:59 UTC)

Sääennuste

Tämä raportti tehtiin 59 minuuttia sitten, kello 14.00 UTC
Ennuste voimassa 12. päivästä klo 15 UTC - 12. päivään klo 24 UTC
Tuuli 3 kn eri suunnista
Näkyvyys 10 km tai enemmän
ei pilviä alle 1500 m:ssä eikä cumulonimbus-pilviä

TAF: LGAL 121400Z 1215/1224 VRB03KT CAVOK

Säähavainnot ja -ennusteet yli 4000 lentoasemalta (METAR- ja TAF-raportit).

Käytössä olevat sääasemat on merkitty karttaan keltaisilla ja punaisilla pisteillä.

Aseta hiiri pisteen päälle nähdäksesi sääaseman nimen.

Klikkaa sitten nähdäksesi säähavainnot ja -ennusteet.

Kartan vaihtaminen: klikkaa mustalla rastilla varustettuja vihreitä pisteitä, niin voit zoomata sisään; viivalla varustettua vihreää pistettä, niin voit zoomata ulos tai vihreitä nuolia, niin pääset viereisille kartoille.


METAR-TAF: